sensor_id;sensor_type;location;lat;lon;timestamp;temperature;humidity
12684;DHT22;6406;59.312;18.058;2022-10-16T00:00:42;12.60;99.90
12684;DHT22;6406;59.312;18.058;2022-10-16T00:03:11;12.60;99.90
12684;DHT22;6406;59.312;18.058;2022-10-16T00:05:40;12.60;99.90
12684;DHT22;6406;59.312;18.058;2022-10-16T00:08:08;12.60;99.90
12684;DHT22;6406;59.312;18.058;2022-10-16T00:10:36;12.60;99.90
12684;DHT22;6406;59.312;18.058;2022-10-16T00:13:03;12.60;98.30
12684;DHT22;6406;59.312;18.058;2022-10-16T00:15:32;12.60;88.50
12684;DHT22;6406;59.312;18.058;2022-10-16T00:18:02;12.50;85.20
12684;DHT22;6406;59.312;18.058;2022-10-16T00:20:30;12.60;91.40
12684;DHT22;6406;59.312;18.058;2022-10-16T00:22:59;12.60;92.10
12684;DHT22;6406;59.312;18.058;2022-10-16T00:25:26;12.60;90.70
12684;DHT22;6406;59.312;18.058;2022-10-16T00:27:53;12.50;98.50
12684;DHT22;6406;59.312;18.058;2022-10-16T00:30:20;12.50;99.90
12684;DHT22;6406;59.312;18.058;2022-10-16T00:32:48;12.50;97.40
12684;DHT22;6406;59.312;18.058;2022-10-16T00:35:15;13.00;93.50
12684;DHT22;6406;59.312;18.058;2022-10-16T00:37:44;12.50;85.00
12684;DHT22;6406;59.312;18.058;2022-10-16T00:40:11;12.50;83.40
12684;DHT22;6406;59.312;18.058;2022-10-16T00:42:38;12.50;74.60
12684;DHT22;6406;59.312;18.058;2022-10-16T00:45:07;12.50;68.80
12684;DHT22;6406;59.312;18.058;2022-10-16T00:47:37;12.50;70.50
12684;DHT22;6406;59.312;18.058;2022-10-16T00:50:09;12.50;71.60
12684;DHT22;6406;59.312;18.058;2022-10-16T00:52:40;12.50;68.70
12684;DHT22;6406;59.312;18.058;2022-10-16T00:55:10;12.50;65.00
12684;DHT22;6406;59.312;18.058;2022-10-16T00:57:37;12.50;71.20
12684;DHT22;6406;59.312;18.058;2022-10-16T01:00:07;12.50;73.60
12684;DHT22;6406;59.312;18.058;2022-10-16T01:02:34;12.40;85.30
12684;DHT22;6406;59.312;18.058;2022-10-16T01:05:02;12.40;88.90
12684;DHT22;6406;59.312;18.058;2022-10-16T01:07:36;12.40;70.70
12684;DHT22;6406;59.312;18.058;2022-10-16T01:10:17;12.50;71.20
12684;DHT22;6406;59.312;18.058;2022-10-16T01:12:50;12.40;64.80
12684;DHT22;6406;59.312;18.058;2022-10-16T01:15:23;12.40;65.20
12684;DHT22;6406;59.312;18.058;2022-10-16T01:17:56;12.40;63.20
12684;DHT22;6406;59.312;18.058;2022-10-16T01:20:27;12.40;66.50
12684;DHT22;6406;59.312;18.058;2022-10-16T01:23:08;12.30;62.00
12684;DHT22;6406;59.312;18.058;2022-10-16T01:26:16;12.30;60.70
12684;DHT22;6406;59.312;18.058;2022-10-16T01:28:51;12.30;62.60
12684;DHT22;6406;59.312;18.058;2022-10-16T01:31:22;12.40;48.50
12684;DHT22;6406;59.312;18.058;2022-10-16T01:33:57;12.40;44.80
12684;DHT22;6406;59.312;18.058;2022-10-16T01:36:29;12.40;45.60
12684;DHT22;6406;59.312;18.058;2022-10-16T01:39:00;12.40;43.60
12684;DHT22;6406;59.312;18.058;2022-10-16T01:41:32;12.40;42.70
12684;DHT22;6406;59.312;18.058;2022-10-16T01:44:04;12.40;48.00
12684;DHT22;6406;59.312;18.058;2022-10-16T01:46:34;12.40;52.80
12684;DHT22;6406;59.312;18.058;2022-10-16T01:49:03;12.40;51.50
12684;DHT22;6406;59.312;18.058;2022-10-16T01:51:30;12.40;53.10
12684;DHT22;6406;59.312;18.058;2022-10-16T01:54:00;12.40;51.40
12684;DHT22;6406;59.312;18.058;2022-10-16T01:56:28;12.40;52.40
12684;DHT22;6406;59.312;18.058;2022-10-16T01:58:57;12.40;58.40
12684;DHT22;6406;59.312;18.058;2022-10-16T02:01:29;12.40;76.40
12684;DHT22;6406;59.312;18.058;2022-10-16T02:03:59;12.40;73.20
12684;DHT22;6406;59.312;18.058;2022-10-16T02:06:28;12.40;63.30
12684;DHT22;6406;59.312;18.058;2022-10-16T02:08:55;12.30;60.50
12684;DHT22;6406;59.312;18.058;2022-10-16T02:11:22;12.30;65.50
12684;DHT22;6406;59.312;18.058;2022-10-16T02:13:52;12.30;71.30
12684;DHT22;6406;59.312;18.058;2022-10-16T02:16:20;12.20;73.90
12684;DHT22;6406;59.312;18.058;2022-10-16T02:18:48;12.20;81.20
12684;DHT22;6406;59.312;18.058;2022-10-16T02:21:21;12.20;83.70
12684;DHT22;6406;59.312;18.058;2022-10-16T02:23:55;12.20;92.00
12684;DHT22;6406;59.312;18.058;2022-10-16T02:26:29;12.20;92.80
12684;DHT22;6406;59.312;18.058;2022-10-16T02:29:00;12.30;84.60
12684;DHT22;6406;59.312;18.058;2022-10-16T02:31:33;12.30;70.00
12684;DHT22;6406;59.312;18.058;2022-10-16T02:34:04;12.30;68.60
12684;DHT22;6406;59.312;18.058;2022-10-16T02:36:32;12.30;66.50
12684;DHT22;6406;59.312;18.058;2022-10-16T02:39:01;12.30;58.50
12684;DHT22;6406;59.312;18.058;2022-10-16T02:41:30;12.30;56.00
12684;DHT22;6406;59.312;18.058;2022-10-16T02:43:57;12.30;58.90
12684;DHT22;6406;59.312;18.058;2022-10-16T02:46:25;12.30;55.10
12684;DHT22;6406;59.312;18.058;2022-10-16T02:48:52;12.30;51.20
12684;DHT22;6406;59.312;18.058;2022-10-16T02:51:20;12.40;44.10
12684;DHT22;6406;59.312;18.058;2022-10-16T02:53:47;12.40;39.30
12684;DHT22;6406;59.312;18.058;2022-10-16T02:56:14;12.40;39.30
12684;DHT22;6406;59.312;18.058;2022-10-16T02:58:41;12.40;39.50
12684;DHT22;6406;59.312;18.058;2022-10-16T03:01:08;12.40;41.80
12684;DHT22;6406;59.312;18.058;2022-10-16T03:03:36;12.40;38.50
12684;DHT22;6406;59.312;18.058;2022-10-16T03:06:03;12.40;36.70
12684;DHT22;6406;59.312;18.058;2022-10-16T03:08:31;12.40;27.70
12684;DHT22;6406;59.312;18.058;2022-10-16T03:10:58;12.40;10.50
12684;DHT22;6406;59.312;18.058;2022-10-16T03:13:25;12.40;3.70
12684;DHT22;6406;59.312;18.058;2022-10-16T03:15:52;12.40;1.00
12684;DHT22;6406;59.312;18.058;2022-10-16T03:18:19;12.40;1.00
12684;DHT22;6406;59.312;18.058;2022-10-16T03:20:46;12.40;1.00
12684;DHT22;6406;59.312;18.058;2022-10-16T03:23:13;12.40;1.00
12684;DHT22;6406;59.312;18.058;2022-10-16T03:25:41;12.30;1.00
12684;DHT22;6406;59.312;18.058;2022-10-16T03:28:08;12.30;1.60
12684;DHT22;6406;59.312;18.058;2022-10-16T03:30:35;12.30;3.60
12684;DHT22;6406;59.312;18.058;2022-10-16T03:33:02;12.30;6.30
12684;DHT22;6406;59.312;18.058;2022-10-16T03:35:29;12.20;10.00
12684;DHT22;6406;59.312;18.058;2022-10-16T03:37:56;12.20;9.50
12684;DHT22;6406;59.312;18.058;2022-10-16T03:40:23;12.20;12.10
12684;DHT22;6406;59.312;18.058;2022-10-16T03:42:51;12.30;14.50
12684;DHT22;6406;59.312;18.058;2022-10-16T03:45:19;12.20;16.90
12684;DHT22;6406;59.312;18.058;2022-10-16T03:47:46;12.20;16.20
12684;DHT22;6406;59.312;18.058;2022-10-16T03:50:14;12.20;15.90
12684;DHT22;6406;59.312;18.058;2022-10-16T03:52:41;12.10;14.40
12684;DHT22;6406;59.312;18.058;2022-10-16T03:55:09;12.10;14.80
12684;DHT22;6406;59.312;18.058;2022-10-16T03:57:36;12.10;13.50
12684;DHT22;6406;59.312;18.058;2022-10-16T04:00:05;12.10;12.50
12684;DHT22;6406;59.312;18.058;2022-10-16T04:02:33;12.00;11.50
12684;DHT22;6406;59.312;18.058;2022-10-16T04:04:59;12.00;14.30
12684;DHT22;6406;59.312;18.058;2022-10-16T04:07:26;12.00;17.30
12684;DHT22;6406;59.312;18.058;2022-10-16T04:09:54;12.00;14.40
12684;DHT22;6406;59.312;18.058;2022-10-16T04:12:22;11.90;13.90
12684;DHT22;6406;59.312;18.058;2022-10-16T04:14:49;11.90;19.70
12684;DHT22;6406;59.312;18.058;2022-10-16T04:17:17;11.90;32.00
12684;DHT22;6406;59.312;18.058;2022-10-16T04:19:45;11.90;36.70
12684;DHT22;6406;59.312;18.058;2022-10-16T04:22:12;11.90;36.90
12684;DHT22;6406;59.312;18.058;2022-10-16T04:24:40;11.90;38.00
12684;DHT22;6406;59.312;18.058;2022-10-16T04:27:07;11.90;41.70
12684;DHT22;6406;59.312;18.058;2022-10-16T04:29:33;11.90;42.50
12684;DHT22;6406;59.312;18.058;2022-10-16T04:32:00;11.80;51.40
12684;DHT22;6406;59.312;18.058;2022-10-16T04:34:29;11.80;49.50
12684;DHT22;6406;59.312;18.058;2022-10-16T04:36:56;11.80;45.00
12684;DHT22;6406;59.312;18.058;2022-10-16T04:39:23;11.80;42.40
12684;DHT22;6406;59.312;18.058;2022-10-16T04:41:49;11.80;43.60
12684;DHT22;6406;59.312;18.058;2022-10-16T04:44:16;11.80;51.40
12684;DHT22;6406;59.312;18.058;2022-10-16T04:46:43;11.70;59.70
12684;DHT22;6406;59.312;18.058;2022-10-16T04:49:11;11.70;56.20
12684;DHT22;6406;59.312;18.058;2022-10-16T04:51:39;11.70;59.00
12684;DHT22;6406;59.312;18.058;2022-10-16T04:54:08;11.70;59.90
12684;DHT22;6406;59.312;18.058;2022-10-16T04:56:36;11.70;65.90
12684;DHT22;6406;59.312;18.058;2022-10-16T04:59:09;11.70;58.30
12684;DHT22;6406;59.312;18.058;2022-10-16T05:01:36;11.60;58.70
12684;DHT22;6406;59.312;18.058;2022-10-16T05:04:03;11.70;59.90
12684;DHT22;6406;59.312;18.058;2022-10-16T05:06:30;11.70;67.90
12684;DHT22;6406;59.312;18.058;2022-10-16T05:08:58;11.70;67.40
12684;DHT22;6406;59.312;18.058;2022-10-16T05:11:25;11.70;74.50
12684;DHT22;6406;59.312;18.058;2022-10-16T05:13:52;11.60;82.10
12684;DHT22;6406;59.312;18.058;2022-10-16T05:16:19;11.60;90.60
12684;DHT22;6406;59.312;18.058;2022-10-16T05:18:46;11.60;93.70
12684;DHT22;6406;59.312;18.058;2022-10-16T05:21:13;11.60;95.70
12684;DHT22;6406;59.312;18.058;2022-10-16T05:23:40;11.60;92.60
12684;DHT22;6406;59.312;18.058;2022-10-16T05:26:09;11.60;97.30
12684;DHT22;6406;59.312;18.058;2022-10-16T05:28:36;11.60;96.40
12684;DHT22;6406;59.312;18.058;2022-10-16T05:31:05;11.70;96.50
12684;DHT22;6406;59.312;18.058;2022-10-16T05:33:32;11.70;99.90
12684;DHT22;6406;59.312;18.058;2022-10-16T05:36:01;11.50;97.60
12684;DHT22;6406;59.312;18.058;2022-10-16T05:38:28;11.70;98.50
12684;DHT22;6406;59.312;18.058;2022-10-16T05:40:55;11.70;99.90
12684;DHT22;6406;59.312;18.058;2022-10-16T05:43:26;11.70;99.90
12684;DHT22;6406;59.312;18.058;2022-10-16T05:45:55;11.70;99.90
12684;DHT22;6406;59.312;18.058;2022-10-16T05:48:23;11.80;98.60
12684;DHT22;6406;59.312;18.058;2022-10-16T05:50:56;11.80;96.40
12684;DHT22;6406;59.312;18.058;2022-10-16T05:53:26;11.70;99.90
12684;DHT22;6406;59.312;18.058;2022-10-16T05:55:53;11.80;99.90
12684;DHT22;6406;59.312;18.058;2022-10-16T05:58:20;11.80;99.90
12684;DHT22;6406;59.312;18.058;2022-10-16T06:00:54;11.80;99.90
12684;DHT22;6406;59.312;18.058;2022-10-16T06:03:22;11.80;99.90
12684;DHT22;6406;59.312;18.058;2022-10-16T06:05:49;11.80;99.90
12684;DHT22;6406;59.312;18.058;2022-10-16T06:08:16;11.90;99.90
12684;DHT22;6406;59.312;18.058;2022-10-16T06:10:44;11.90;99.90
12684;DHT22;6406;59.312;18.058;2022-10-16T06:13:11;11.90;99.90
12684;DHT22;6406;59.312;18.058;2022-10-16T06:15:38;11.90;99.90
12684;DHT22;6406;59.312;18.058;2022-10-16T06:18:09;12.00;99.90
12684;DHT22;6406;59.312;18.058;2022-10-16T06:20:36;12.00;99.90
12684;DHT22;6406;59.312;18.058;2022-10-16T06:23:03;12.00;99.90
12684;DHT22;6406;59.312;18.058;2022-10-16T06:25:30;12.00;99.90
12684;DHT22;6406;59.312;18.058;2022-10-16T06:27:57;12.00;99.90
12684;DHT22;6406;59.312;18.058;2022-10-16T06:30:24;12.00;99.90
12684;DHT22;6406;59.312;18.058;2022-10-16T06:32:51;12.10;99.90
12684;DHT22;6406;59.312;18.058;2022-10-16T06:35:19;12.10;99.90
12684;DHT22;6406;59.312;18.058;2022-10-16T06:37:46;12.20;99.90
12684;DHT22;6406;59.312;18.058;2022-10-16T06:40:13;12.20;99.90
12684;DHT22;6406;59.312;18.058;2022-10-16T06:42:41;12.20;99.90
12684;DHT22;6406;59.312;18.058;2022-10-16T06:45:08;12.30;99.90
12684;DHT22;6406;59.312;18.058;2022-10-16T06:47:35;12.30;99.90
12684;DHT22;6406;59.312;18.058;2022-10-16T06:50:03;12.30;99.90
12684;DHT22;6406;59.312;18.058;2022-10-16T06:52:33;12.30;99.90
12684;DHT22;6406;59.312;18.058;2022-10-16T06:55:00;12.40;99.90
12684;DHT22;6406;59.312;18.058;2022-10-16T06:57:28;12.40;99.90
12684;DHT22;6406;59.312;18.058;2022-10-16T06:59:55;12.40;99.90
12684;DHT22;6406;59.312;18.058;2022-10-16T07:02:22;12.40;99.90
12684;DHT22;6406;59.312;18.058;2022-10-16T07:04:49;12.50;99.90
12684;DHT22;6406;59.312;18.058;2022-10-16T07:07:16;12.50;93.80
12684;DHT22;6406;59.312;18.058;2022-10-16T07:09:44;12.50;94.30
12684;DHT22;6406;59.312;18.058;2022-10-16T07:12:11;12.50;89.10
12684;DHT22;6406;59.312;18.058;2022-10-16T07:14:38;12.50;83.50
12684;DHT22;6406;59.312;18.058;2022-10-16T07:17:05;12.60;73.50
12684;DHT22;6406;59.312;18.058;2022-10-16T07:19:32;12.60;72.90
12684;DHT22;6406;59.312;18.058;2022-10-16T07:22:00;12.60;47.60
12684;DHT22;6406;59.312;18.058;2022-10-16T07:24:27;12.70;37.50
12684;DHT22;6406;59.312;18.058;2022-10-16T07:26:55;12.70;20.00
12684;DHT22;6406;59.312;18.058;2022-10-16T07:29:22;12.70;15.40
12684;DHT22;6406;59.312;18.058;2022-10-16T07:31:49;12.70;5.30
12684;DHT22;6406;59.312;18.058;2022-10-16T07:34:19;12.70;1.00
12684;DHT22;6406;59.312;18.058;2022-10-16T07:36:48;12.80;1.00
12684;DHT22;6406;59.312;18.058;2022-10-16T07:39:15;12.70;1.00
12684;DHT22;6406;59.312;18.058;2022-10-16T07:41:42;12.70;1.00
12684;DHT22;6406;59.312;18.058;2022-10-16T07:44:10;12.70;1.00
12684;DHT22;6406;59.312;18.058;2022-10-16T07:46:38;12.70;1.00
12684;DHT22;6406;59.312;18.058;2022-10-16T07:49:06;12.70;1.00
12684;DHT22;6406;59.312;18.058;2022-10-16T07:51:34;12.70;1.00
12684;DHT22;6406;59.312;18.058;2022-10-16T07:54:03;12.70;1.00
12684;DHT22;6406;59.312;18.058;2022-10-16T07:56:31;12.70;1.00
12684;DHT22;6406;59.312;18.058;2022-10-16T07:58:58;12.70;1.00
12684;DHT22;6406;59.312;18.058;2022-10-16T08:01:27;12.70;1.00
12684;DHT22;6406;59.312;18.058;2022-10-16T08:03:54;12.70;1.00
12684;DHT22;6406;59.312;18.058;2022-10-16T08:06:22;12.70;1.00
12684;DHT22;6406;59.312;18.058;2022-10-16T08:08:49;12.70;1.00
12684;DHT22;6406;59.312;18.058;2022-10-16T08:11:16;12.70;1.00
12684;DHT22;6406;59.312;18.058;2022-10-16T08:13:43;12.70;1.00
12684;DHT22;6406;59.312;18.058;2022-10-16T08:16:10;12.70;1.00
12684;DHT22;6406;59.312;18.058;2022-10-16T08:18:40;12.70;1.00
12684;DHT22;6406;59.312;18.058;2022-10-16T08:21:12;12.70;1.00
12684;DHT22;6406;59.312;18.058;2022-10-16T08:23:39;12.80;1.00
12684;DHT22;6406;59.312;18.058;2022-10-16T08:26:07;12.80;1.00
12684;DHT22;6406;59.312;18.058;2022-10-16T08:28:35;12.70;1.00
12684;DHT22;6406;59.312;18.058;2022-10-16T08:31:07;12.80;1.00
12684;DHT22;6406;59.312;18.058;2022-10-16T08:33:34;12.80;1.00
12684;DHT22;6406;59.312;18.058;2022-10-16T08:36:04;12.80;1.00
12684;DHT22;6406;59.312;18.058;2022-10-16T08:38:31;12.80;1.00
12684;DHT22;6406;59.312;18.058;2022-10-16T08:41:14;12.80;1.00
12684;DHT22;6406;59.312;18.058;2022-10-16T08:44:03;12.80;1.00
12684;DHT22;6406;59.312;18.058;2022-10-16T08:46:41;12.90;1.00
12684;DHT22;6406;59.312;18.058;2022-10-16T08:49:11;12.90;1.00
12684;DHT22;6406;59.312;18.058;2022-10-16T08:51:41;12.90;1.00
12684;DHT22;6406;59.312;18.058;2022-10-16T08:54:21;13.00;1.00
12684;DHT22;6406;59.312;18.058;2022-10-16T08:56:49;13.00;1.00
12684;DHT22;6406;59.312;18.058;2022-10-16T08:59:17;12.90;1.00
12684;DHT22;6406;59.312;18.058;2022-10-16T09:01:46;13.00;1.00
12684;DHT22;6406;59.312;18.058;2022-10-16T09:04:40;13.00;1.00
12684;DHT22;6406;59.312;18.058;2022-10-16T09:07:15;13.10;1.00
12684;DHT22;6406;59.312;18.058;2022-10-16T09:10:05;13.10;1.00
12684;DHT22;6406;59.312;18.058;2022-10-16T09:12:39;13.00;1.00
12684;DHT22;6406;59.312;18.058;2022-10-16T09:15:20;13.00;1.00
12684;DHT22;6406;59.312;18.058;2022-10-16T09:17:54;13.00;1.00
12684;DHT22;6406;59.312;18.058;2022-10-16T09:20:31;13.00;1.00
12684;DHT22;6406;59.312;18.058;2022-10-16T09:23:15;13.00;1.00
12684;DHT22;6406;59.312;18.058;2022-10-16T09:25:46;13.10;1.00
12684;DHT22;6406;59.312;18.058;2022-10-16T09:28:15;13.10;1.00
12684;DHT22;6406;59.312;18.058;2022-10-16T09:30:43;13.10;1.00
12684;DHT22;6406;59.312;18.058;2022-10-16T09:33:12;13.20;1.00
12684;DHT22;6406;59.312;18.058;2022-10-16T09:35:40;13.20;1.00
12684;DHT22;6406;59.312;18.058;2022-10-16T09:38:21;13.30;1.00
12684;DHT22;6406;59.312;18.058;2022-10-16T09:40:50;13.40;1.00
12684;DHT22;6406;59.312;18.058;2022-10-16T09:43:22;13.20;1.00
12684;DHT22;6406;59.312;18.058;2022-10-16T09:45:57;13.40;1.00
12684;DHT22;6406;59.312;18.058;2022-10-16T09:48:28;13.30;1.00
12684;DHT22;6406;59.312;18.058;2022-10-16T09:50:59;13.40;1.00
12684;DHT22;6406;59.312;18.058;2022-10-16T09:53:39;13.60;1.00
12684;DHT22;6406;59.312;18.058;2022-10-16T09:56:06;13.70;1.00
12684;DHT22;6406;59.312;18.058;2022-10-16T09:58:33;13.70;1.00
12684;DHT22;6406;59.312;18.058;2022-10-16T10:01:00;13.50;1.00
12684;DHT22;6406;59.312;18.058;2022-10-16T10:03:36;13.50;1.00
12684;DHT22;6406;59.312;18.058;2022-10-16T10:06:14;13.40;1.00
12684;DHT22;6406;59.312;18.058;2022-10-16T10:08:59;13.50;1.00
12684;DHT22;6406;59.312;18.058;2022-10-16T10:11:47;13.60;1.00
12684;DHT22;6406;59.312;18.058;2022-10-16T10:14:23;13.90;1.00
12684;DHT22;6406;59.312;18.058;2022-10-16T10:16:52;14.10;1.00
12684;DHT22;6406;59.312;18.058;2022-10-16T10:19:22;14.20;1.00
12684;DHT22;6406;59.312;18.058;2022-10-16T10:21:50;14.10;1.00
12684;DHT22;6406;59.312;18.058;2022-10-16T10:24:19;14.30;1.00
12684;DHT22;6406;59.312;18.058;2022-10-16T10:26:56;14.10;1.00
12684;DHT22;6406;59.312;18.058;2022-10-16T10:29:35;14.10;1.00
12684;DHT22;6406;59.312;18.058;2022-10-16T10:32:16;14.10;1.00
12684;DHT22;6406;59.312;18.058;2022-10-16T10:35:03;14.20;1.00
12684;DHT22;6406;59.312;18.058;2022-10-16T10:38:00;14.10;1.00
12684;DHT22;6406;59.312;18.058;2022-10-16T10:40:39;14.00;1.00
12684;DHT22;6406;59.312;18.058;2022-10-16T10:43:21;14.20;1.00
12684;DHT22;6406;59.312;18.058;2022-10-16T10:45:56;14.20;1.00
12684;DHT22;6406;59.312;18.058;2022-10-16T10:48:47;14.10;1.00
12684;DHT22;6406;59.312;18.058;2022-10-16T10:51:20;14.30;1.00
12684;DHT22;6406;59.312;18.058;2022-10-16T10:53:56;14.40;99.90
12684;DHT22;6406;59.312;18.058;2022-10-16T10:56:42;14.90;99.90
12684;DHT22;6406;59.312;18.058;2022-10-16T10:59:40;15.20;99.90
12684;DHT22;6406;59.312;18.058;2022-10-16T11:02:15;15.40;99.90
12684;DHT22;6406;59.312;18.058;2022-10-16T11:05:12;15.30;99.90
12684;DHT22;6406;59.312;18.058;2022-10-16T11:07:48;15.10;99.90
12684;DHT22;6406;59.312;18.058;2022-10-16T11:10:19;15.20;99.90
12684;DHT22;6406;59.312;18.058;2022-10-16T11:12:52;15.10;99.90
12684;DHT22;6406;59.312;18.058;2022-10-16T11:15:25;14.90;99.90
12684;DHT22;6406;59.312;18.058;2022-10-16T11:17:57;14.70;99.90
12684;DHT22;6406;59.312;18.058;2022-10-16T11:20:28;14.50;99.90
12684;DHT22;6406;59.312;18.058;2022-10-16T11:23:00;14.40;99.90
12684;DHT22;6406;59.312;18.058;2022-10-16T11:25:30;14.50;99.90
12684;DHT22;6406;59.312;18.058;2022-10-16T11:28:03;14.60;99.90
12684;DHT22;6406;59.312;18.058;2022-10-16T11:30:41;14.70;99.90
12684;DHT22;6406;59.312;18.058;2022-10-16T11:33:23;14.80;99.90
12684;DHT22;6406;59.312;18.058;2022-10-16T11:35:54;14.80;99.90
12684;DHT22;6406;59.312;18.058;2022-10-16T11:38:29;14.80;99.90
12684;DHT22;6406;59.312;18.058;2022-10-16T11:41:02;14.80;99.90
12684;DHT22;6406;59.312;18.058;2022-10-16T11:43:35;14.70;99.90
12684;DHT22;6406;59.312;18.058;2022-10-16T11:46:10;14.50;99.90
12684;DHT22;6406;59.312;18.058;2022-10-16T11:48:45;14.40;99.90
12684;DHT22;6406;59.312;18.058;2022-10-16T11:51:19;14.30;99.90
12684;DHT22;6406;59.312;18.058;2022-10-16T11:53:55;14.40;99.90
12684;DHT22;6406;59.312;18.058;2022-10-16T11:56:24;14.30;99.90
12684;DHT22;6406;59.312;18.058;2022-10-16T11:58:56;14.30;99.90
12684;DHT22;6406;59.312;18.058;2022-10-16T12:01:30;14.20;99.90
12684;DHT22;6406;59.312;18.058;2022-10-16T12:04:14;14.40;99.90
12684;DHT22;6406;59.312;18.058;2022-10-16T12:06:46;14.70;99.90
12684;DHT22;6406;59.312;18.058;2022-10-16T12:09:20;15.10;99.90
12684;DHT22;6406;59.312;18.058;2022-10-16T12:11:48;15.50;99.90
12684;DHT22;6406;59.312;18.058;2022-10-16T12:14:32;15.50;99.90
12684;DHT22;6406;59.312;18.058;2022-10-16T12:17:02;15.40;99.90
12684;DHT22;6406;59.312;18.058;2022-10-16T12:19:31;15.40;99.90
12684;DHT22;6406;59.312;18.058;2022-10-16T12:22:00;15.40;99.90
12684;DHT22;6406;59.312;18.058;2022-10-16T12:24:34;15.20;99.90
12684;DHT22;6406;59.312;18.058;2022-10-16T12:27:02;15.10;99.90
12684;DHT22;6406;59.312;18.058;2022-10-16T12:29:36;15.00;99.90
12684;DHT22;6406;59.312;18.058;2022-10-16T12:32:05;15.30;99.90
12684;DHT22;6406;59.312;18.058;2022-10-16T12:34:45;15.30;99.90
12684;DHT22;6406;59.312;18.058;2022-10-16T12:37:18;15.00;99.90
12684;DHT22;6406;59.312;18.058;2022-10-16T12:39:47;14.90;99.90
12684;DHT22;6406;59.312;18.058;2022-10-16T12:42:23;14.90;99.90
12684;DHT22;6406;59.312;18.058;2022-10-16T12:44:52;14.80;99.90
12684;DHT22;6406;59.312;18.058;2022-10-16T12:47:22;14.70;99.90
12684;DHT22;6406;59.312;18.058;2022-10-16T12:49:51;14.60;99.90
12684;DHT22;6406;59.312;18.058;2022-10-16T12:52:35;14.60;1.00
12684;DHT22;6406;59.312;18.058;2022-10-16T12:55:05;14.40;99.90
12684;DHT22;6406;59.312;18.058;2022-10-16T12:57:46;14.40;1.00
12684;DHT22;6406;59.312;18.058;2022-10-16T13:00:26;14.50;99.90
12684;DHT22;6406;59.312;18.058;2022-10-16T13:03:27;14.50;99.90
12684;DHT22;6406;59.312;18.058;2022-10-16T13:06:07;14.60;99.90
12684;DHT22;6406;59.312;18.058;2022-10-16T13:08:52;14.60;99.90
12684;DHT22;6406;59.312;18.058;2022-10-16T13:11:29;14.50;99.90
12684;DHT22;6406;59.312;18.058;2022-10-16T13:14:23;14.40;1.00
12684;DHT22;6406;59.312;18.058;2022-10-16T13:17:04;14.40;99.90
12684;DHT22;6406;59.312;18.058;2022-10-16T13:19:38;14.30;1.00
12684;DHT22;6406;59.312;18.058;2022-10-16T13:22:14;14.30;1.00
12684;DHT22;6406;59.312;18.058;2022-10-16T13:24:55;14.50;1.00
12684;DHT22;6406;59.312;18.058;2022-10-16T13:27:33;14.50;99.90
12684;DHT22;6406;59.312;18.058;2022-10-16T13:30:10;14.60;1.00
12684;DHT22;6406;59.312;18.058;2022-10-16T13:32:39;14.60;99.90
12684;DHT22;6406;59.312;18.058;2022-10-16T13:35:20;14.50;99.90
12684;DHT22;6406;59.312;18.058;2022-10-16T13:37:48;14.50;99.90
12684;DHT22;6406;59.312;18.058;2022-10-16T13:40:23;14.50;99.90
12684;DHT22;6406;59.312;18.058;2022-10-16T13:42:53;14.50;99.90
12684;DHT22;6406;59.312;18.058;2022-10-16T13:45:22;14.40;99.90
12684;DHT22;6406;59.312;18.058;2022-10-16T13:48:01;14.30;99.90
12684;DHT22;6406;59.312;18.058;2022-10-16T13:50:28;14.40;99.90
12684;DHT22;6406;59.312;18.058;2022-10-16T13:53:04;14.40;99.90
12684;DHT22;6406;59.312;18.058;2022-10-16T13:55:31;14.30;99.90
12684;DHT22;6406;59.312;18.058;2022-10-16T13:58:06;14.20;99.90
12684;DHT22;6406;59.312;18.058;2022-10-16T14:00:34;14.20;99.90
12684;DHT22;6406;59.312;18.058;2022-10-16T14:03:04;14.20;99.90
12684;DHT22;6406;59.312;18.058;2022-10-16T14:05:32;14.20;1.00
12684;DHT22;6406;59.312;18.058;2022-10-16T14:08:00;14.10;99.90
12684;DHT22;6406;59.312;18.058;2022-10-16T14:10:30;14.10;99.90
12684;DHT22;6406;59.312;18.058;2022-10-16T14:12:59;14.10;99.90
12684;DHT22;6406;59.312;18.058;2022-10-16T14:15:30;14.10;99.90
12684;DHT22;6406;59.312;18.058;2022-10-16T14:17:58;14.10;99.90
12684;DHT22;6406;59.312;18.058;2022-10-16T14:20:29;14.00;99.90
12684;DHT22;6406;59.312;18.058;2022-10-16T14:23:03;14.00;1.00
12684;DHT22;6406;59.312;18.058;2022-10-16T14:25:31;13.90;1.00
12684;DHT22;6406;59.312;18.058;2022-10-16T14:28:04;14.20;1.00
12684;DHT22;6406;59.312;18.058;2022-10-16T14:30:33;13.80;1.00
12684;DHT22;6406;59.312;18.058;2022-10-16T14:33:01;13.80;1.00
12684;DHT22;6406;59.312;18.058;2022-10-16T14:35:32;13.70;1.00
12684;DHT22;6406;59.312;18.058;2022-10-16T14:38:02;13.60;1.00
12684;DHT22;6406;59.312;18.058;2022-10-16T14:40:31;13.60;1.00
12684;DHT22;6406;59.312;18.058;2022-10-16T14:42:59;13.50;1.00
12684;DHT22;6406;59.312;18.058;2022-10-16T14:45:30;13.60;1.00
12684;DHT22;6406;59.312;18.058;2022-10-16T14:48:01;13.50;1.00
12684;DHT22;6406;59.312;18.058;2022-10-16T14:50:30;13.50;1.00
12684;DHT22;6406;59.312;18.058;2022-10-16T14:52:58;13.50;1.00
12684;DHT22;6406;59.312;18.058;2022-10-16T14:55:25;13.40;1.00
12684;DHT22;6406;59.312;18.058;2022-10-16T14:57:52;13.50;1.00
12684;DHT22;6406;59.312;18.058;2022-10-16T15:00:22;13.40;1.00
12684;DHT22;6406;59.312;18.058;2022-10-16T15:02:50;13.40;1.00
12684;DHT22;6406;59.312;18.058;2022-10-16T15:05:19;13.40;1.00
12684;DHT22;6406;59.312;18.058;2022-10-16T15:07:49;13.40;1.00
12684;DHT22;6406;59.312;18.058;2022-10-16T15:10:17;13.40;1.00
12684;DHT22;6406;59.312;18.058;2022-10-16T15:12:44;13.40;1.00
12684;DHT22;6406;59.312;18.058;2022-10-16T15:15:34;13.40;1.00
12684;DHT22;6406;59.312;18.058;2022-10-16T15:18:01;13.40;1.00
12684;DHT22;6406;59.312;18.058;2022-10-16T15:20:30;13.40;1.00
12684;DHT22;6406;59.312;18.058;2022-10-16T15:23:01;13.40;1.00
12684;DHT22;6406;59.312;18.058;2022-10-16T15:25:33;13.30;1.00
12684;DHT22;6406;59.312;18.058;2022-10-16T15:28:01;13.10;1.00
12684;DHT22;6406;59.312;18.058;2022-10-16T15:30:28;12.80;1.00
12684;DHT22;6406;59.312;18.058;2022-10-16T15:32:55;11.40;1.00
12684;DHT22;6406;59.312;18.058;2022-10-16T15:35:23;10.80;1.00
12684;DHT22;6406;59.312;18.058;2022-10-16T15:37:50;10.70;1.00
12684;DHT22;6406;59.312;18.058;2022-10-16T15:40:19;10.50;1.00
12684;DHT22;6406;59.312;18.058;2022-10-16T15:42:47;10.40;1.00
12684;DHT22;6406;59.312;18.058;2022-10-16T15:45:14;10.30;1.00
12684;DHT22;6406;59.312;18.058;2022-10-16T15:47:42;10.10;1.00
12684;DHT22;6406;59.312;18.058;2022-10-16T15:50:10;10.00;15.30
12684;DHT22;6406;59.312;18.058;2022-10-16T15:52:38;9.90;45.10
12684;DHT22;6406;59.312;18.058;2022-10-16T15:55:06;9.80;57.70
12684;DHT22;6406;59.312;18.058;2022-10-16T15:57:35;8.70;29.50
12684;DHT22;6406;59.312;18.058;2022-10-16T16:00:05;9.70;24.30